Time;durP1;ratioP1;P1;durP2;ratioP2;P2;SDS_P1;SDS_P2;PMS_P1;PMS_P2;Temp;Humidity;BMP_temperature;BMP_pressure;BME280_temperature;BME280_humidity;BME280_pressure;Samples;Min_cycle;Max_cycle;Signal;HPM_P1;HPM_P2
2021/07/30 00:00:46;;;;;;;11.17;8.10;;;;;;;;;;4992493;28;20575;-68
2021/07/30 00:03:12;;;;;;;8.10;6.77;;;;;;;;;;4993235;28;20502;-68
2021/07/30 00:05:38;;;;;;;8.30;7.50;;;;;;;;;;4992362;28;20429;-69
2021/07/30 00:08:04;;;;;;;12.50;7.70;;;;;;;;;;4993046;28;20396;-68
2021/07/30 00:10:31;;;;;;;10.03;7.80;;;;;;;;;;5007317;28;20526;-68
2021/07/30 00:12:57;;;;;;;10.03;8.00;;;;;;;;;;4992937;28;20405;-68
2021/07/30 00:15:23;;;;;;;8.67;7.57;;;;;;;;;;4992112;28;20523;-68
2021/07/30 00:17:51;;;;;;;9.50;7.77;;;;;;;;;;4992959;28;20409;-68
2021/07/30 00:20:17;;;;;;;12.20;8.10;;;;;;;;;;5006918;28;20460;-68
2021/07/30 00:22:43;;;;;;;8.00;6.73;;;;;;;;;;4992815;28;20964;-68
2021/07/30 00:25:09;;;;;;;11.47;7.70;;;;;;;;;;4992063;28;20464;-68
2021/07/30 00:27:35;;;;;;;10.27;6.93;;;;;;;;;;4993074;28;20415;-69
2021/07/30 00:30:01;;;;;;;11.70;7.63;;;;;;;;;;4993543;28;20475;-69
2021/07/30 00:32:27;;;;;;;10.43;7.83;;;;;;;;;;4995739;28;20432;-68
2021/07/30 00:34:53;;;;;;;9.50;7.80;;;;;;;;;;4995923;28;20526;-68
2021/07/30 00:37:19;;;;;;;8.73;7.00;;;;;;;;;;4996772;28;20897;-68
2021/07/30 00:39:46;;;;;;;11.73;7.23;;;;;;;;;;4995904;28;20980;-69
2021/07/30 00:42:12;;;;;;;8.63;7.70;;;;;;;;;;4996564;28;20454;-68
2021/07/30 00:44:38;;;;;;;11.10;7.27;;;;;;;;;;4996315;28;20820;-69
2021/07/30 00:47:04;;;;;;;9.00;6.97;;;;;;;;;;4996674;28;20877;-68
2021/07/30 00:49:30;;;;;;;8.83;6.83;;;;;;;;;;4995846;28;20912;-69
2021/07/30 00:51:56;;;;;;;9.37;7.83;;;;;;;;;;4996571;28;20511;-69
2021/07/30 00:54:24;;;;;;;8.20;6.70;;;;;;;;;;4996018;28;20490;-68
2021/07/30 00:56:51;;;;;;;10.67;7.07;;;;;;;;;;4996592;28;20771;-69
2021/07/30 00:59:17;;;;;;;10.37;6.63;;;;;;;;;;4991346;28;20461;-68
2021/07/30 01:01:43;;;;;;;9.87;7.40;;;;;;;;;;4976941;28;20453;-68
2021/07/30 01:04:09;;;;;;;10.07;7.10;;;;;;;;;;4980083;28;20507;-68
2021/07/30 01:06:35;;;;;;;9.07;7.13;;;;;;;;;;4992355;28;20428;-67
2021/07/30 01:09:02;;;;;;;7.37;5.83;;;;;;;;;;4996015;28;20551;-67
2021/07/30 01:11:28;;;;;;;8.57;6.67;;;;;;;;;;4995512;28;20701;-68
2021/07/30 01:13:54;;;;;;;10.80;7.27;;;;;;;;;;4996083;28;20465;-67
2021/07/30 01:16:20;;;;;;;8.30;7.20;;;;;;;;;;4994657;28;20460;-68
2021/07/30 01:18:46;;;;;;;8.17;6.83;;;;;;;;;;4995695;28;20447;-67
2021/07/30 01:21:19;;;;;;;7.20;6.30;;;;;;;;;;4980716;28;20471;-67
2021/07/30 01:23:48;;;;;;;10.67;7.00;;;;;;;;;;4976409;28;20875;-68
2021/07/30 01:26:15;;;;;;;8.83;6.83;;;;;;;;;;4991183;28;20428;-67
2021/07/30 01:28:41;;;;;;;10.50;6.70;;;;;;;;;;4995700;28;20449;-67
2021/07/30 01:31:07;;;;;;;9.00;6.60;;;;;;;;;;4981202;28;20942;-67
2021/07/30 01:33:33;;;;;;;8.60;6.40;;;;;;;;;;4976078;28;20405;-68
2021/07/30 01:35:59;;;;;;;8.00;6.70;;;;;;;;;;4988640;28;20515;-67
2021/07/30 01:38:25;;;;;;;9.37;7.07;;;;;;;;;;4995595;28;20424;-67
2021/07/30 01:40:51;;;;;;;7.40;6.30;;;;;;;;;;4992132;28;20468;-67
2021/07/30 01:43:17;;;;;;;8.80;6.13;;;;;;;;;;4994564;28;20440;-67
2021/07/30 01:45:43;;;;;;;8.40;6.33;;;;;;;;;;4994065;28;20523;-67
2021/07/30 01:48:09;;;;;;;9.10;7.57;;;;;;;;;;4995128;28;20892;-67
2021/07/30 01:50:35;;;;;;;7.67;6.40;;;;;;;;;;4994917;28;20835;-67
2021/07/30 01:53:02;;;;;;;7.23;6.33;;;;;;;;;;5010467;28;20463;-68
2021/07/30 01:55:28;;;;;;;8.03;5.90;;;;;;;;;;4994600;28;20921;-67
2021/07/30 01:57:54;;;;;;;8.67;6.77;;;;;;;;;;4995040;28;20447;-67
2021/07/30 02:00:20;;;;;;;8.03;6.13;;;;;;;;;;4993483;28;20401;-67
2021/07/30 02:02:47;;;;;;;8.30;6.77;;;;;;;;;;4983149;28;20495;-68
2021/07/30 02:05:13;;;;;;;9.10;7.00;;;;;;;;;;4994291;28;20984;-69
2021/07/30 02:07:39;;;;;;;9.97;6.73;;;;;;;;;;4995273;28;20771;-68
2021/07/30 02:10:06;;;;;;;7.20;6.23;;;;;;;;;;4995032;28;20420;-68
2021/07/30 02:14:14;;;;;;;9.33;6.77;;;;;;;;;;4994501;28;20463;-68
2021/07/30 02:15:18;;;;;;;8.87;6.53;;;;;;;;;;4994142;28;20432;-68
2021/07/30 02:17:44;;;;;;;8.47;6.50;;;;;;;;;;4975664;28;20508;-68
2021/07/30 02:20:10;;;;;;;6.20;5.60;;;;;;;;;;4975190;28;20476;-68
2021/07/30 02:22:36;;;;;;;9.20;6.57;;;;;;;;;;4993351;28;20575;-68
2021/07/30 02:25:02;;;;;;;8.13;6.00;;;;;;;;;;4994935;28;20526;-68
2021/07/30 02:27:28;;;;;;;14.50;11.97;;;;;;;;;;4993758;28;20441;-68
2021/07/30 02:29:54;;;;;;;7.90;6.40;;;;;;;;;;5009477;28;20482;-68
2021/07/30 02:32:20;;;;;;;8.60;7.20;;;;;;;;;;4993527;28;20932;-68
2021/07/30 02:34:46;;;;;;;8.73;6.37;;;;;;;;;;4993451;28;20409;-68
2021/07/30 02:37:12;;;;;;;7.17;6.40;;;;;;;;;;4987961;28;20460;-68
2021/07/30 02:39:38;;;;;;;10.47;7.27;;;;;;;;;;4992436;28;20436;-68
2021/07/30 02:42:05;;;;;;;10.30;7.23;;;;;;;;;;4992132;28;20542;-69
2021/07/30 02:44:31;;;;;;;8.10;6.70;;;;;;;;;;4992576;28;20786;-68
2021/07/30 02:46:57;;;;;;;10.00;7.50;;;;;;;;;;4992293;28;20436;-68
2021/07/30 02:49:23;;;;;;;8.50;6.50;;;;;;;;;;4994223;28;20416;-68
2021/07/30 02:51:48;;;;;;;7.83;6.83;;;;;;;;;;4993263;28;20449;-68
2021/07/30 02:54:15;;;;;;;8.90;6.53;;;;;;;;;;4993946;28;20969;-66
2021/07/30 02:56:41;;;;;;;10.53;7.73;;;;;;;;;;4992147;28;20519;-68
2021/07/30 02:59:07;;;;;;;7.97;6.77;;;;;;;;;;4994145;28;20835;-68
2021/07/30 03:01:33;;;;;;;9.90;7.03;;;;;;;;;;4992660;28;20456;-68
2021/07/30 03:03:59;;;;;;;9.47;6.80;;;;;;;;;;4994151;28;20408;-68
2021/07/30 03:06:25;;;;;;;8.03;6.90;;;;;;;;;;4992846;28;20829;-68
2021/07/30 03:08:51;;;;;;;9.23;7.00;;;;;;;;;;4993596;28;20985;-69
2021/07/30 03:11:17;;;;;;;11.90;7.87;;;;;;;;;;4993733;28;20768;-68
2021/07/30 03:13:43;;;;;;;8.53;7.10;;;;;;;;;;4993845;28;20915;-68
2021/07/30 03:16:11;;;;;;;9.23;7.23;;;;;;;;;;4993050;28;20811;-68
2021/07/30 03:18:37;;;;;;;8.13;7.03;;;;;;;;;;4977786;28;20476;-68
2021/07/30 03:21:03;;;;;;;11.73;7.40;;;;;;;;;;4976785;28;20464;-68
2021/07/30 03:23:29;;;;;;;10.10;7.50;;;;;;;;;;4992840;28;20508;-68
2021/07/30 03:25:55;;;;;;;10.73;8.23;;;;;;;;;;4991575;28;20933;-68
2021/07/30 03:28:21;;;;;;;8.70;7.80;;;;;;;;;;4992824;28;20484;-68
2021/07/30 03:30:48;;;;;;;9.90;7.37;;;;;;;;;;4993449;28;20412;-68
2021/07/30 03:33:14;;;;;;;9.60;7.60;;;;;;;;;;4992235;28;20442;-68
2021/07/30 03:35:40;;;;;;;8.47;7.20;;;;;;;;;;4994595;28;20424;-68
2021/07/30 03:38:07;;;;;;;9.70;7.47;;;;;;;;;;4993292;28;20917;-68
2021/07/30 03:40:33;;;;;;;9.77;7.90;;;;;;;;;;4993613;28;20762;-68
2021/07/30 03:42:59;;;;;;;9.73;6.80;;;;;;;;;;4992359;28;20893;-68
2021/07/30 03:45:25;;;;;;;10.10;7.20;;;;;;;;;;4993562;28;20433;-68
2021/07/30 03:47:51;;;;;;;10.30;7.70;;;;;;;;;;5006938;28;20483;-68
2021/07/30 03:50:17;;;;;;;10.07;7.30;;;;;;;;;;4992806;28;20826;-68
2021/07/30 03:52:43;;;;;;;12.63;9.13;;;;;;;;;;4991255;28;20424;-67
2021/07/30 03:55:09;;;;;;;11.83;7.37;;;;;;;;;;4993122;28;20400;-68
2021/07/30 03:57:35;;;;;;;9.43;6.57;;;;;;;;;;4992077;28;20432;-68
2021/07/30 04:00:01;;;;;;;8.17;7.17;;;;;;;;;;4993220;28;20781;-68
2021/07/30 04:02:28;;;;;;;10.43;7.27;;;;;;;;;;4992544;28;20988;-68
2021/07/30 04:04:54;;;;;;;10.70;7.70;;;;;;;;;;4993478;28;20459;-68
2021/07/30 04:07:20;;;;;;;9.80;8.33;;;;;;;;;;4992705;28;20432;-68
2021/07/30 04:09:46;;;;;;;11.73;8.60;;;;;;;;;;4993623;28;20451;-68
2021/07/30 04:12:12;;;;;;;11.00;7.90;;;;;;;;;;4987103;28;20429;-68
2021/07/30 04:14:38;;;;;;;11.20;8.53;;;;;;;;;;4974236;28;20496;-68
2021/07/30 04:17:04;;;;;;;13.67;8.73;;;;;;;;;;4978861;28;20440;-68
2021/07/30 04:19:30;;;;;;;11.90;7.40;;;;;;;;;;4993451;28;20458;-68
2021/07/30 04:21:56;;;;;;;11.13;7.47;;;;;;;;;;4992411;28;20551;-68
2021/07/30 04:24:22;;;;;;;9.00;7.20;;;;;;;;;;4992809;28;20516;-68
2021/07/30 04:26:48;;;;;;;9.63;7.10;;;;;;;;;;4992806;28;20464;-68
2021/07/30 04:29:14;;;;;;;9.53;7.00;;;;;;;;;;4993561;28;20474;-68
2021/07/30 04:31:41;;;;;;;10.83;7.33;;;;;;;;;;4992609;28;20404;-69
2021/07/30 04:34:07;;;;;;;9.70;7.10;;;;;;;;;;4993347;28;20940;-68
2021/07/30 04:36:33;;;;;;;13.33;7.43;;;;;;;;;;4992617;28;20445;-69
2021/07/30 04:38:59;;;;;;;11.03;8.17;;;;;;;;;;4993616;28;20909;-68
2021/07/30 04:41:25;;;;;;;11.87;8.10;;;;;;;;;;4993397;28;20824;-67
2021/07/30 04:43:51;;;;;;;11.97;8.07;;;;;;;;;;4992301;28;20917;-68
2021/07/30 04:46:18;;;;;;;10.10;7.83;;;;;;;;;;4993256;28;20503;-68
2021/07/30 04:48:44;;;;;;;11.20;8.63;;;;;;;;;;4992178;28;20572;-68
2021/07/30 04:51:11;;;;;;;10.63;7.07;;;;;;;;;;4992314;28;20807;-68
2021/07/30 04:53:37;;;;;;;10.37;7.33;;;;;;;;;;4985427;28;20457;-68
2021/07/30 04:56:04;;;;;;;18.70;7.80;;;;;;;;;;4973924;28;20802;-67
2021/07/30 04:58:30;;;;;;;10.80;7.80;;;;;;;;;;4980860;28;20882;-67
2021/07/30 05:00:56;;;;;;;11.53;7.57;;;;;;;;;;4991463;28;20488;-68
2021/07/30 05:03:22;;;;;;;11.23;8.00;;;;;;;;;;4992096;28;20425;-68
2021/07/30 05:05:48;;;;;;;11.50;7.70;;;;;;;;;;4991179;28;20439;-68
2021/07/30 05:08:14;;;;;;;10.30;8.17;;;;;;;;;;4991632;28;20555;-68
2021/07/30 05:10:40;;;;;;;11.70;8.47;;;;;;;;;;4993297;28;20400;-67
2021/07/30 05:13:06;;;;;;;11.50;8.30;;;;;;;;;;5007586;28;20436;-67
2021/07/30 05:15:32;;;;;;;11.20;7.90;;;;;;;;;;4993198;28;20781;-67
2021/07/30 05:17:58;;;;;;;10.47;8.00;;;;;;;;;;4993613;28;20413;-69
2021/07/30 05:20:25;;;;;;;8.90;7.17;;;;;;;;;;4979069;28;20484;-68
2021/07/30 05:22:51;;;;;;;10.67;7.70;;;;;;;;;;4977312;28;20966;-68
2021/07/30 05:25:17;;;;;;;10.10;7.80;;;;;;;;;;4996430;28;20416;-68
2021/07/30 05:27:43;;;;;;;11.50;8.10;;;;;;;;;;4996407;28;20895;-68
2021/07/30 05:30:09;;;;;;;12.00;8.30;;;;;;;;;;4977779;28;20441;-68
2021/07/30 05:32:35;;;;;;;9.40;7.20;;;;;;;;;;4976849;28;20893;-68
2021/07/30 05:35:01;;;;;;;11.30;7.33;;;;;;;;;;4994312;28;20459;-69
2021/07/30 05:37:27;;;;;;;9.23;6.97;;;;;;;;;;4996478;28;20908;-69
2021/07/30 05:39:53;;;;;;;10.63;7.43;;;;;;;;;;4995019;28;20457;-68
2021/07/30 05:42:19;;;;;;;11.17;7.33;;;;;;;;;;4996041;28;20463;-68
2021/07/30 05:44:45;;;;;;;14.33;9.17;;;;;;;;;;4995170;28;20428;-68
2021/07/30 05:47:11;;;;;;;10.80;6.47;;;;;;;;;;4996060;28;20764;-67
2021/07/30 05:49:37;;;;;;;9.10;7.03;;;;;;;;;;4994197;28;20491;-68
2021/07/30 05:52:03;;;;;;;9.10;7.10;;;;;;;;;;4991508;28;20772;-67
2021/07/30 05:54:32;;;;;;;10.20;8.20;;;;;;;;;;4995056;28;20436;-67
2021/07/30 05:56:58;;;;;;;11.13;7.20;;;;;;;;;;4996082;28;20419;-68
2021/07/30 05:59:24;;;;;;;12.00;7.30;;;;;;;;;;4995283;28;20448;-67
2021/07/30 06:01:50;;;;;;;10.37;7.30;;;;;;;;;;4996373;28;20468;-67
2021/07/30 06:04:16;;;;;;;10.83;6.20;;;;;;;;;;4995045;28;20953;-67
2021/07/30 06:06:42;;;;;;;14.37;7.40;;;;;;;;;;4995482;28;20491;-67
2021/07/30 06:09:08;;;;;;;15.20;8.10;;;;;;;;;;4994415;28;20483;-67
2021/07/30 06:11:34;;;;;;;9.93;6.87;;;;;;;;;;4995551;28;20401;-68
2021/07/30 06:14:00;;;;;;;9.90;6.53;;;;;;;;;;4991838;28;20436;-67
2021/07/30 06:16:26;;;;;;;9.30;6.93;;;;;;;;;;4975941;28;20875;-67
2021/07/30 06:18:52;;;;;;;9.60;7.40;;;;;;;;;;4977025;28;20493;-67
2021/07/30 06:21:19;;;;;;;10.20;7.13;;;;;;;;;;4995513;28;20460;-68
2021/07/30 06:23:45;;;;;;;11.63;6.53;;;;;;;;;;4994519;28;20881;-68
2021/07/30 06:26:11;;;;;;;9.20;6.60;;;;;;;;;;4995392;28;20401;-67
2021/07/30 06:28:37;;;;;;;7.50;6.20;;;;;;;;;;4993547;28;20531;-67
2021/07/30 06:31:03;;;;;;;8.07;6.77;;;;;;;;;;5009702;28;20511;-68
2021/07/30 06:33:29;;;;;;;7.50;6.20;;;;;;;;;;4994976;28;20941;-67
2021/07/30 06:35:56;;;;;;;6.70;5.77;;;;;;;;;;4994197;28;20424;-67
2021/07/30 06:38:23;;;;;;;7.23;6.37;;;;;;;;;;4993656;28;20494;-69
2021/07/30 06:40:49;;;;;;;10.10;7.07;;;;;;;;;;4989306;28;20424;-66
2021/07/30 06:43:15;;;;;;;9.30;6.70;;;;;;;;;;4993999;28;20421;-66
2021/07/30 06:45:42;;;;;;;7.97;5.67;;;;;;;;;;4992857;28;20424;-66
2021/07/30 06:48:08;;;;;;;8.90;5.90;;;;;;;;;;4994209;28;20423;-65
2021/07/30 06:50:34;;;;;;;8.40;6.43;;;;;;;;;;4993493;28;20478;-65
2021/07/30 06:53:00;;;;;;;8.97;6.27;;;;;;;;;;4994134;28;20511;-65
2021/07/30 06:55:26;;;;;;;8.37;6.60;;;;;;;;;;4991573;28;20421;-66
2021/07/30 06:57:52;;;;;;;9.37;6.87;;;;;;;;;;4988117;28;20487;-66
2021/07/30 07:00:18;;;;;;;9.10;5.60;;;;;;;;;;4989629;28;20459;-67
2021/07/30 07:02:44;;;;;;;11.17;7.80;;;;;;;;;;4991973;28;20464;-66
2021/07/30 07:05:10;;;;;;;8.07;6.40;;;;;;;;;;4992241;28;20420;-68
2021/07/30 07:07:36;;;;;;;8.67;7.07;;;;;;;;;;4991443;28;20507;-65
2021/07/30 07:10:03;;;;;;;8.37;7.37;;;;;;;;;;4992658;28;20596;-71
2021/07/30 07:12:29;;;;;;;9.50;8.20;;;;;;;;;;4991141;28;20450;-68
2021/07/30 07:14:55;;;;;;;10.00;6.90;;;;;;;;;;4990838;28;20432;-68
2021/07/30 07:17:21;;;;;;;11.97;8.10;;;;;;;;;;4992250;28;20439;-68
2021/07/30 07:19:47;;;;;;;7.50;6.30;;;;;;;;;;4986578;28;20456;-68
2021/07/30 07:22:13;;;;;;;9.40;7.03;;;;;;;;;;4992828;28;20455;-69
2021/07/30 07:24:40;;;;;;;7.17;6.30;;;;;;;;;;4990192;28;20428;-68
2021/07/30 07:27:06;;;;;;;8.27;7.27;;;;;;;;;;4981823;28;20770;-69
2021/07/30 07:29:32;;;;;;;9.83;6.80;;;;;;;;;;4992352;28;20595;-69
2021/07/30 07:31:58;;;;;;;7.40;5.90;;;;;;;;;;4992113;28;20436;-69
2021/07/30 07:34:25;;;;;;;7.87;5.87;;;;;;;;;;4990444;28;20804;-69
2021/07/30 07:36:51;;;;;;;7.80;6.37;;;;;;;;;;4991491;28;20940;-69
2021/07/30 07:39:17;;;;;;;9.10;7.10;;;;;;;;;;4990984;28;20455;-69
2021/07/30 07:41:44;;;;;;;8.00;6.43;;;;;;;;;;4991996;28;20471;-68
2021/07/30 07:44:12;;;;;;;10.90;6.80;;;;;;;;;;4992617;28;20412;-69
2021/07/30 07:46:38;;;;;;;9.67;6.57;;;;;;;;;;4991238;28;20416;-69
2021/07/30 07:49:04;;;;;;;8.90;6.80;;;;;;;;;;4992650;28;20435;-69
2021/07/30 07:51:30;;;;;;;8.23;7.27;;;;;;;;;;4990568;28;20920;-69
2021/07/30 07:53:56;;;;;;;7.50;6.70;;;;;;;;;;4992206;28;20419;-69
2021/07/30 07:56:23;;;;;;;7.20;6.13;;;;;;;;;;4990195;28;20785;-69
2021/07/30 07:58:49;;;;;;;9.23;6.80;;;;;;;;;;4992090;28;20439;-69
2021/07/30 08:01:15;;;;;;;7.37;5.33;;;;;;;;;;4990250;28;20463;-69
2021/07/30 08:03:44;;;;;;;7.47;6.67;;;;;;;;;;4993723;28;20793;-70
2021/07/30 08:06:14;;;;;;;9.17;5.90;;;;;;;;;;4984391;28;20439;-68
2021/07/30 08:08:40;;;;;;;7.20;5.87;;;;;;;;;;4992504;28;20979;-68
2021/07/30 08:11:06;;;;;;;7.73;6.20;;;;;;;;;;4986886;28;20441;-68
2021/07/30 08:13:32;;;;;;;7.57;6.53;;;;;;;;;;4991704;28;20436;-68
2021/07/30 08:15:58;;;;;;;7.07;6.37;;;;;;;;;;4992311;28;20936;-68
2021/07/30 08:18:24;;;;;;;8.80;7.03;;;;;;;;;;4992659;28;20487;-69
2021/07/30 08:20:50;;;;;;;9.80;6.40;;;;;;;;;;4992342;28;20543;-68
2021/07/30 08:23:16;;;;;;;7.47;6.10;;;;;;;;;;4993137;28;20900;-69
2021/07/30 08:25:42;;;;;;;12.20;6.40;;;;;;;;;;4991799;28;20419;-68
2021/07/30 08:28:09;;;;;;;9.77;6.60;;;;;;;;;;4992031;28;20420;-68
2021/07/30 08:30:35;;;;;;;7.37;6.17;;;;;;;;;;5004897;28;20443;-68
2021/07/30 08:33:01;;;;;;;7.10;5.60;;;;;;;;;;4991860;28;20408;-68
2021/07/30 08:35:27;;;;;;;7.77;6.37;;;;;;;;;;4991256;28;20431;-69
2021/07/30 08:37:55;;;;;;;7.73;6.40;;;;;;;;;;4989854;28;20780;-68
2021/07/30 08:40:21;;;;;;;9.27;7.20;;;;;;;;;;4992608;28;20508;-69
2021/07/30 08:42:48;;;;;;;8.67;6.60;;;;;;;;;;4991927;28;20463;-69
2021/07/30 08:45:14;;;;;;;7.50;6.07;;;;;;;;;;4992018;28;20408;-68
2021/07/30 08:47:40;;;;;;;8.67;6.70;;;;;;;;;;4991764;28;21101;-68
2021/07/30 08:50:06;;;;;;;8.47;6.20;;;;;;;;;;4991663;28;20428;-68
2021/07/30 08:52:37;;;;;;;8.07;7.23;;;;;;;;;;4994354;28;20537;-68
2021/07/30 08:55:04;;;;;;;7.53;6.53;;;;;;;;;;4995679;28;20416;-69
2021/07/30 08:57:30;;;;;;;8.83;5.70;;;;;;;;;;4993157;28;20455;-69
2021/07/30 09:00:06;;;;;;;6.57;5.70;;;;;;;;;;4997430;28;20436;-69
2021/07/30 09:02:32;;;;;;;6.93;6.23;;;;;;;;;;4993898;28;20521;-69
2021/07/30 09:04:58;;;;;;;7.90;7.10;;;;;;;;;;4993645;28;20823;-69
2021/07/30 09:07:39;;;;;;;6.73;6.00;;;;;;;;;;4993188;28;20435;-69
2021/07/30 09:10:08;;;;;;;8.43;6.37;;;;;;;;;;4991347;28;20948;-69
2021/07/30 09:12:34;;;;;;;6.57;5.30;;;;;;;;;;4996642;28;20447;-69
2021/07/30 09:15:00;;;;;;;5.97;5.40;;;;;;;;;;4995023;28;20909;-69
2021/07/30 09:17:40;;;;;;;6.30;5.50;;;;;;;;;;4992571;28;20427;-69
2021/07/30 09:20:06;;;;;;;6.97;6.10;;;;;;;;;;4993038;28;20462;-69
2021/07/30 09:22:48;;;;;;;6.50;5.27;;;;;;;;;;4991995;28;20859;-70
2021/07/30 09:25:31;;;;;;;7.13;5.90;;;;;;;;;;4992932;28;20731;-69
2021/07/30 09:28:04;;;;;;;6.70;5.93;;;;;;;;;;4991780;28;20435;-69
2021/07/30 09:30:30;;;;;;;6.23;5.63;;;;;;;;;;4995397;28;20428;-69
2021/07/30 09:32:57;;;;;;;7.17;6.20;;;;;;;;;;4992510;28;20432;-69
2021/07/30 09:35:23;;;;;;;7.87;6.37;;;;;;;;;;4995337;28;20578;-69
2021/07/30 09:38:09;;;;;;;6.73;6.00;;;;;;;;;;4993756;28;20439;-69
2021/07/30 09:40:35;;;;;;;6.23;5.63;;;;;;;;;;4995019;28;20999;-69
2021/07/30 09:43:19;;;;;;;7.00;5.43;;;;;;;;;;4993139;28;20456;-70
2021/07/30 09:45:45;;;;;;;7.27;5.83;;;;;;;;;;4994477;28;20408;-69
2021/07/30 09:48:11;;;;;;;6.50;5.47;;;;;;;;;;4993608;28;20486;-69
2021/07/30 09:50:37;;;;;;;7.07;5.80;;;;;;;;;;4995362;28;20853;-69
2021/07/30 09:53:06;;;;;;;6.77;5.77;;;;;;;;;;4992335;28;20424;-69
2021/07/30 09:55:33;;;;;;;8.53;6.23;;;;;;;;;;4991196;28;20425;-69
2021/07/30 09:58:00;;;;;;;7.10;5.67;;;;;;;;;;4992348;28;20454;-69
2021/07/30 10:00:27;;;;;;;6.47;5.57;;;;;;;;;;5008617;28;20420;-70
2021/07/30 10:02:53;;;;;;;8.03;6.00;;;;;;;;;;4985086;28;20854;-70
2021/07/30 10:05:20;;;;;;;5.70;4.83;;;;;;;;;;4993636;28;20877;-69
2021/07/30 10:07:46;;;;;;;7.23;5.00;;;;;;;;;;4993149;28;20943;-69
2021/07/30 10:12:51;;;;;;;7.80;6.53;;;;;;;;;;4989221;28;20404;-69
2021/07/30 10:15:17;;;;;;;5.93;4.83;;;;;;;;;;4993941;28;20463;-70
2021/07/30 10:17:45;;;;;;;6.33;5.43;;;;;;;;;;4993896;28;20420;-69
2021/07/30 10:20:12;;;;;;;6.13;5.53;;;;;;;;;;4993543;28;20443;-69
2021/07/30 10:22:44;;;;;;;13.13;5.83;;;;;;;;;;4991365;28;20455;-69
2021/07/30 10:25:11;;;;;;;7.60;5.67;;;;;;;;;;4993803;28;20785;-69
2021/07/30 10:27:44;;;;;;;7.43;5.90;;;;;;;;;;4990560;28;20482;-70
2021/07/30 10:30:11;;;;;;;6.40;5.30;;;;;;;;;;4991893;28;20785;-70
2021/07/30 10:32:43;;;;;;;7.60;6.10;;;;;;;;;;4986735;28;20942;-69
2021/07/30 10:35:10;;;;;;;9.00;5.23;;;;;;;;;;4992284;28;20439;-69
2021/07/30 10:37:36;;;;;;;6.47;5.63;;;;;;;;;;4993273;28;20887;-70
2021/07/30 10:40:12;;;;;;;6.20;5.23;;;;;;;;;;4992725;28;20784;-69
2021/07/30 10:42:58;;;;;;;8.03;5.40;;;;;;;;;;4990907;28;20463;-69
2021/07/30 10:45:24;;;;;;;7.90;5.80;;;;;;;;;;4989822;28;20424;-69
2021/07/30 10:48:09;;;;;;;6.33;4.73;;;;;;;;;;4989487;28;20809;-70
2021/07/30 10:50:59;;;;;;;10.73;5.17;;;;;;;;;;4987122;28;20423;-70
2021/07/30 10:56:01;;;;;;;6.37;5.70;;;;;;;;;;4980633;28;20461;-70
2021/07/30 10:58:45;;;;;;;8.90;5.20;;;;;;;;;;4987190;28;20443;-70
2021/07/30 11:01:21;;;;;;;6.37;5.10;;;;;;;;;;4993416;28;20456;-70
2021/07/30 11:03:53;;;;;;;7.87;5.40;;;;;;;;;;4990355;28;20971;-70
2021/07/30 11:06:25;;;;;;;8.90;5.17;;;;;;;;;;4997317;28;20419;-70
2021/07/30 11:09:04;;;;;;;6.40;5.20;;;;;;;;;;4992237;28;20447;-70
2021/07/30 11:11:39;;;;;;;8.47;6.30;;;;;;;;;;4985360;28;20419;-70
2021/07/30 11:14:14;;;;;;;6.40;5.60;;;;;;;;;;4991518;28;20458;-69
2021/07/30 11:16:51;;;;;;;6.50;5.20;;;;;;;;;;4993332;28;20416;-70
2021/07/30 11:19:18;;;;;;;9.03;6.03;;;;;;;;;;4985158;28;20506;-69
2021/07/30 11:21:44;;;;;;;6.30;5.10;;;;;;;;;;4982272;28;20579;-69
2021/07/30 11:24:10;;;;;;;7.30;4.60;;;;;;;;;;4991848;28;20787;-69
2021/07/30 11:26:38;;;;;;;7.27;5.00;;;;;;;;;;4993201;28;20490;-69
2021/07/30 11:29:07;;;;;;;4.90;4.40;;;;;;;;;;4991473;28;20542;-70
2021/07/30 11:31:33;;;;;;;5.80;4.90;;;;;;;;;;4983155;28;20421;-70
2021/07/30 11:33:59;;;;;;;5.43;4.80;;;;;;;;;;4986938;28;20494;-70
2021/07/30 11:36:25;;;;;;;7.03;4.90;;;;;;;;;;4991872;28;20424;-70
2021/07/30 11:38:55;;;;;;;5.60;5.00;;;;;;;;;;4991430;28;20490;-70
2021/07/30 11:41:22;;;;;;;10.33;6.17;;;;;;;;;;4993050;28;20935;-70
2021/07/30 11:44:00;;;;;;;6.80;5.60;;;;;;;;;;4977893;28;20460;-69
2021/07/30 11:46:31;;;;;;;6.07;5.00;;;;;;;;;;4974417;28;20920;-69
2021/07/30 11:48:57;;;;;;;7.03;5.70;;;;;;;;;;4989665;28;20444;-70
2021/07/30 11:51:24;;;;;;;5.63;5.03;;;;;;;;;;4982155;28;20515;-69
2021/07/30 11:53:50;;;;;;;6.43;5.17;;;;;;;;;;4988496;28;20435;-69
2021/07/30 11:56:19;;;;;;;7.37;5.13;;;;;;;;;;4993292;28;20404;-69
2021/07/30 11:59:02;;;;;;;5.77;4.93;;;;;;;;;;4978780;28;20480;-69
2021/07/30 12:01:29;;;;;;;6.87;5.60;;;;;;;;;;4974081;28;20468;-69
2021/07/30 12:04:05;;;;;;;6.50;4.57;;;;;;;;;;4974290;28;20429;-69
2021/07/30 12:06:32;;;;;;;6.30;5.00;;;;;;;;;;4974057;28;20408;-69
2021/07/30 12:08:59;;;;;;;4.73;4.20;;;;;;;;;;4988698;28;20834;-69
2021/07/30 12:11:26;;;;;;;10.80;5.40;;;;;;;;;;4985982;28;21017;-69
2021/07/30 12:13:53;;;;;;;6.87;5.50;;;;;;;;;;4988214;28;20446;-69
2021/07/30 12:16:19;;;;;;;7.60;4.70;;;;;;;;;;4993175;28;20412;-69
2021/07/30 12:18:45;;;;;;;6.77;4.40;;;;;;;;;;4992066;28;20575;-69
2021/07/30 12:21:11;;;;;;;5.57;4.30;;;;;;;;;;4993329;28;20525;-69
2021/07/30 12:23:37;;;;;;;5.43;4.87;;;;;;;;;;4992333;28;20428;-69
2021/07/30 12:26:03;;;;;;;5.60;4.20;;;;;;;;;;4994889;28;20447;-69
2021/07/30 12:28:39;;;;;;;7.23;4.40;;;;;;;;;;4996169;28;20501;-69
2021/07/30 12:31:16;;;;;;;5.90;4.70;;;;;;;;;;4997168;28;20753;-69
2021/07/30 12:33:42;;;;;;;5.80;5.10;;;;;;;;;;4996549;28;20978;-69
2021/07/30 12:36:09;;;;;;;7.17;5.60;;;;;;;;;;5011941;28;20408;-69
2021/07/30 12:38:59;;;;;;;5.80;4.20;;;;;;;;;;4996199;28;20448;-69
2021/07/30 12:41:26;;;;;;;6.50;4.90;;;;;;;;;;4996596;28;20848;-70
2021/07/30 12:43:52;;;;;;;5.90;5.30;;;;;;;;;;4994710;28;20490;-70
2021/07/30 12:46:30;;;;;;;5.80;5.20;;;;;;;;;;4994300;28;20677;-70
2021/07/30 12:48:56;;;;;;;6.87;5.23;;;;;;;;;;5005934;28;20521;-69
2021/07/30 12:51:26;;;;;;;6.97;5.83;;;;;;;;;;4986465;28;20830;-69
2021/07/30 12:54:03;;;;;;;6.90;5.20;;;;;;;;;;4994321;28;20490;-70
2021/07/30 12:56:49;;;;;;;7.57;5.57;;;;;;;;;;4996666;28;20450;-70
2021/07/30 12:59:15;;;;;;;5.50;4.97;;;;;;;;;;4993570;28;20869;-70
2021/07/30 13:01:41;;;;;;;5.37;4.87;;;;;;;;;;4996653;28;20550;-70
2021/07/30 13:04:08;;;;;;;5.57;4.47;;;;;;;;;;4995020;28;20419;-69
2021/07/30 13:06:34;;;;;;;6.17;5.37;;;;;;;;;;4996509;28;20447;-69
2021/07/30 13:09:00;;;;;;;8.00;5.13;;;;;;;;;;4995297;28;20526;-68
2021/07/30 13:11:27;;;;;;;5.90;5.27;;;;;;;;;;4995435;28;20857;-68
2021/07/30 13:13:53;;;;;;;6.50;4.40;;;;;;;;;;4988742;28;20440;-69
2021/07/30 13:16:20;;;;;;;4.93;4.40;;;;;;;;;;4996154;28;20980;-69
2021/07/30 13:18:46;;;;;;;8.30;5.30;;;;;;;;;;4993741;28;20498;-69
2021/07/30 13:21:12;;;;;;;5.97;4.80;;;;;;;;;;4994047;28;20788;-69
2021/07/30 13:23:38;;;;;;;5.60;4.60;;;;;;;;;;4994669;28;20415;-70
2021/07/30 13:26:04;;;;;;;6.37;5.00;;;;;;;;;;4993748;28;20452;-69
2021/07/30 13:28:30;;;;;;;5.40;4.57;;;;;;;;;;4994878;28;20447;-69
2021/07/30 13:30:57;;;;;;;5.93;5.00;;;;;;;;;;4994946;28;20427;-69
2021/07/30 13:33:23;;;;;;;5.43;4.43;;;;;;;;;;4993003;28;20420;-69
2021/07/30 13:35:49;;;;;;;6.80;5.40;;;;;;;;;;4995757;28;21190;-69
2021/07/30 13:38:16;;;;;;;6.20;5.60;;;;;;;;;;4990899;28;20797;-69
2021/07/30 13:40:42;;;;;;;5.73;5.10;;;;;;;;;;4995997;28;20463;-69
2021/07/30 13:43:09;;;;;;;7.00;5.03;;;;;;;;;;4993554;28;20456;-69
2021/07/30 13:45:35;;;;;;;6.87;4.60;;;;;;;;;;4995384;28;20438;-69
2021/07/30 13:48:01;;;;;;;10.67;6.27;;;;;;;;;;4993519;28;20428;-69
2021/07/30 13:50:28;;;;;;;5.37;4.43;;;;;;;;;;4996013;28;20900;-69
2021/07/30 13:52:54;;;;;;;5.60;4.67;;;;;;;;;;4994823;28;20941;-69
2021/07/30 13:55:20;;;;;;;5.13;4.53;;;;;;;;;;4995910;28;20404;-69
2021/07/30 13:57:46;;;;;;;6.17;4.90;;;;;;;;;;4994163;28;20511;-68
2021/07/30 14:00:12;;;;;;;5.70;5.10;;;;;;;;;;4995178;28;20440;-69
2021/07/30 14:02:38;;;;;;;6.60;4.87;;;;;;;;;;4994334;28;20458;-69
2021/07/30 14:05:04;;;;;;;6.07;5.40;;;;;;;;;;4995304;28;20423;-69
2021/07/30 14:07:30;;;;;;;6.10;5.07;;;;;;;;;;4994098;28;20450;-69
2021/07/30 14:09:56;;;;;;;8.13;5.20;;;;;;;;;;4994098;28;20944;-69
2021/07/30 14:12:22;;;;;;;5.87;5.10;;;;;;;;;;4993878;28;20432;-69
2021/07/30 14:14:48;;;;;;;6.10;5.20;;;;;;;;;;4994866;28;20419;-69
2021/07/30 14:17:14;;;;;;;5.23;4.50;;;;;;;;;;4994702;28;20439;-69
2021/07/30 14:19:41;;;;;;;5.33;4.57;;;;;;;;;;4992626;28;20459;-69
2021/07/30 14:22:08;;;;;;;6.87;4.83;;;;;;;;;;4994971;28;20447;-69
2021/07/30 14:24:34;;;;;;;5.07;4.40;;;;;;;;;;4993709;28;20455;-69
2021/07/30 14:27:00;;;;;;;7.23;4.87;;;;;;;;;;4992868;28;20420;-69
2021/07/30 14:29:27;;;;;;;6.73;5.63;;;;;;;;;;4992665;28;20968;-69
2021/07/30 14:31:53;;;;;;;5.00;4.50;;;;;;;;;;4993398;28;20514;-70
2021/07/30 14:34:19;;;;;;;5.57;4.87;;;;;;;;;;4993238;28;21083;-69
2021/07/30 14:36:45;;;;;;;5.30;4.80;;;;;;;;;;4991821;28;20443;-69
2021/07/30 14:39:13;;;;;;;6.47;5.20;;;;;;;;;;4992123;28;20455;-68
2021/07/30 14:41:40;;;;;;;5.37;4.20;;;;;;;;;;4993990;28;20828;-68
2021/07/30 14:44:06;;;;;;;6.77;4.90;;;;;;;;;;4985013;28;20431;-67
2021/07/30 14:46:32;;;;;;;6.93;5.10;;;;;;;;;;4994297;28;20420;-68